Time;durP1;ratioP1;P1;durP2;ratioP2;P2;SDS_P1;SDS_P2;PMS_P1;PMS_P2;Temp;Humidity;BMP_temperature;BMP_pressure;BME280_temperature;BME280_humidity;BME280_pressure;Samples;Min_cycle;Max_cycle;Signal;HPM_P1;HPM_P2
2021/12/29 00:00:53;;;;;;;32.38;18.25;;;;;;;;;;5017636;28;20178;-56
2021/12/29 00:03:18;;;;;;;39.30;17.63;;;;;;;;;;5020732;28;20755;-58
2021/12/29 00:05:44;;;;;;;38.08;17.83;;;;;;;;;;5016930;28;20271;-57
2021/12/29 00:08:09;;;;;;;48.25;18.10;;;;;;;;;;5022471;28;20185;-57
2021/12/29 00:10:34;;;;;;;40.30;17.10;;;;;;;;;;5018300;28;20189;-57
2021/12/29 00:13:00;;;;;;;56.17;19.23;;;;;;;;;;5017677;28;20269;-57
2021/12/29 00:15:27;;;;;;;80.38;18.70;;;;;;;;;;5022576;28;20174;-57
2021/12/29 00:17:53;;;;;;;52.35;19.27;;;;;;;;;;5013914;28;20544;-56
2021/12/29 00:20:20;;;;;;;59.25;19.73;;;;;;;;;;4996450;28;20249;-56
2021/12/29 00:22:48;;;;;;;72.50;20.52;;;;;;;;;;4997993;28;20193;-56
2021/12/29 00:25:14;;;;;;;53.15;19.80;;;;;;;;;;5019873;28;20176;-56
2021/12/29 00:27:39;;;;;;;47.78;20.13;;;;;;;;;;5021898;28;20201;-57
2021/12/29 00:30:06;;;;;;;48.60;23.60;;;;;;;;;;5019436;28;20662;-58
2021/12/29 00:32:31;;;;;;;48.08;23.20;;;;;;;;;;5020787;28;20616;-57
2021/12/29 00:34:56;;;;;;;54.80;24.73;;;;;;;;;;5020525;28;20190;-57
2021/12/29 00:37:22;;;;;;;51.60;21.77;;;;;;;;;;5018184;28;20543;-56
2021/12/29 00:39:47;;;;;;;55.90;23.27;;;;;;;;;;5016564;28;20205;-57
2021/12/29 00:42:12;;;;;;;57.35;21.90;;;;;;;;;;5016329;28;20577;-57
2021/12/29 00:44:38;;;;;;;54.03;21.80;;;;;;;;;;5018415;28;20292;-56
2021/12/29 00:47:03;;;;;;;67.75;22.08;;;;;;;;;;5017829;28;20542;-57
2021/12/29 00:49:36;;;;;;;43.65;21.13;;;;;;;;;;5021567;28;20570;-57
2021/12/29 00:52:12;;;;;;;47.72;22.75;;;;;;;;;;5017966;28;20174;-57
2021/12/29 00:54:38;;;;;;;49.03;21.83;;;;;;;;;;5014611;28;20312;-57
2021/12/29 00:57:04;;;;;;;46.03;19.85;;;;;;;;;;5019347;28;20178;-57
2021/12/29 00:59:29;;;;;;;32.53;18.42;;;;;;;;;;5018305;28;20182;-57
2021/12/29 01:01:54;;;;;;;39.60;18.27;;;;;;;;;;4996966;28;21380;-57
2021/12/29 01:04:20;;;;;;;36.22;17.70;;;;;;;;;;4997195;28;20690;-58
2021/12/29 01:06:45;;;;;;;29.15;15.70;;;;;;;;;;5020637;28;20701;-57
2021/12/29 01:09:11;;;;;;;30.50;16.02;;;;;;;;;;5012682;28;20236;-56
2021/12/29 01:11:36;;;;;;;38.35;17.15;;;;;;;;;;5019783;28;20560;-57
2021/12/29 01:14:02;;;;;;;29.90;15.68;;;;;;;;;;5016741;28;20192;-57
2021/12/29 01:18:59;;;;;;;33.25;16.17;;;;;;;;;;5018937;28;20667;-57
2021/12/29 01:21:24;;;;;;;28.48;15.32;;;;;;;;;;5022582;28;20186;-57
2021/12/29 01:23:50;;;;;;;30.30;14.55;;;;;;;;;;5015144;28;20604;-57
2021/12/29 01:26:17;;;;;;;37.17;16.70;;;;;;;;;;5017365;28;20186;-57
2021/12/29 01:28:42;;;;;;;48.15;17.85;;;;;;;;;;5013026;28;20277;-57
2021/12/29 01:31:07;;;;;;;32.10;17.45;;;;;;;;;;5016226;28;20741;-57
2021/12/29 01:33:33;;;;;;;35.28;15.65;;;;;;;;;;5013727;28;20187;-57
2021/12/29 01:35:58;;;;;;;29.00;15.02;;;;;;;;;;5019549;28;20189;-57
2021/12/29 01:38:23;;;;;;;31.13;15.32;;;;;;;;;;5019507;28;20171;-59
2021/12/29 01:40:49;;;;;;;30.00;15.48;;;;;;;;;;5015111;28;20668;-56
2021/12/29 01:43:15;;;;;;;31.17;16.90;;;;;;;;;;4998457;28;20238;-56
2021/12/29 01:45:40;;;;;;;29.70;14.85;;;;;;;;;;4996352;28;20219;-56
2021/12/29 01:48:06;;;;;;;27.17;15.88;;;;;;;;;;5000394;28;20693;-57
2021/12/29 01:50:32;;;;;;;29.00;15.15;;;;;;;;;;5008691;28;20179;-57
2021/12/29 01:53:02;;;;;;;27.13;15.02;;;;;;;;;;5021905;28;20202;-57
2021/12/29 01:55:29;;;;;;;29.55;16.05;;;;;;;;;;5019973;28;20178;-57
2021/12/29 01:57:54;;;;;;;27.23;14.32;;;;;;;;;;5019987;28;20186;-57
2021/12/29 02:00:21;;;;;;;25.92;15.15;;;;;;;;;;5022388;28;20587;-57
2021/12/29 02:02:47;;;;;;;29.65;16.75;;;;;;;;;;5020627;28;20179;-57
2021/12/29 02:05:12;;;;;;;26.65;15.00;;;;;;;;;;5014196;28;20221;-57
2021/12/29 02:07:38;;;;;;;26.92;15.25;;;;;;;;;;5016486;28;20197;-57
2021/12/29 02:10:04;;;;;;;26.00;14.35;;;;;;;;;;5015317;28;20187;-57
2021/12/29 02:12:30;;;;;;;26.08;15.30;;;;;;;;;;5021544;28;20202;-56
2021/12/29 02:14:55;;;;;;;26.52;15.57;;;;;;;;;;5021335;28;20182;-57
2021/12/29 02:17:20;;;;;;;27.35;17.02;;;;;;;;;;5019625;28;20187;-57
2021/12/29 02:19:47;;;;;;;28.48;16.85;;;;;;;;;;5018542;28;20193;-57
2021/12/29 02:22:37;;;;;;;31.13;16.40;;;;;;;;;;5014893;28;20631;-57
2021/12/29 02:27:44;;;;;;;30.45;15.25;;;;;;;;;;5019452;28;20499;-57
2021/12/29 02:30:10;;;;;;;42.80;15.75;;;;;;;;;;5023059;28;20179;-57
2021/12/29 02:32:36;;;;;;;45.42;16.92;;;;;;;;;;5026965;28;20193;-57
2021/12/29 02:35:01;;;;;;;38.17;16.55;;;;;;;;;;5008472;28;20183;-57
2021/12/29 02:37:26;;;;;;;30.02;13.90;;;;;;;;;;5018809;28;20185;-57
2021/12/29 02:39:52;;;;;;;31.33;13.85;;;;;;;;;;5022821;28;20186;-57
2021/12/29 02:42:19;;;;;;;30.30;13.32;;;;;;;;;;5021427;28;20336;-57
2021/12/29 02:44:46;;;;;;;27.35;14.32;;;;;;;;;;5017160;28;20695;-57
2021/12/29 02:47:11;;;;;;;29.25;12.57;;;;;;;;;;5017415;28;20265;-57
2021/12/29 02:49:37;;;;;;;22.20;11.80;;;;;;;;;;5019594;28;20231;-57
2021/12/29 02:52:02;;;;;;;17.63;11.38;;;;;;;;;;5021106;28;20266;-57
2021/12/29 02:54:27;;;;;;;18.17;9.90;;;;;;;;;;5017806;28;20206;-57
2021/12/29 02:56:54;;;;;;;18.27;9.85;;;;;;;;;;5026037;28;20174;-57
2021/12/29 02:59:20;;;;;;;34.47;12.32;;;;;;;;;;5018128;28;20174;-57
2021/12/29 03:01:45;;;;;;;23.23;9.98;;;;;;;;;;5007681;28;20179;-56
2021/12/29 03:04:11;;;;;;;19.10;10.27;;;;;;;;;;5017819;28;20210;-56
2021/12/29 03:06:37;;;;;;;17.23;9.77;;;;;;;;;;5019827;28;20517;-56
2021/12/29 03:09:05;;;;;;;16.98;10.55;;;;;;;;;;4999808;28;20241;-56
2021/12/29 03:11:31;;;;;;;50.92;11.82;;;;;;;;;;5019551;28;20181;-57
2021/12/29 03:13:56;;;;;;;21.35;9.60;;;;;;;;;;5013793;28;20187;-57
2021/12/29 03:16:22;;;;;;;26.70;11.80;;;;;;;;;;5007635;28;20666;-57
2021/12/29 03:18:47;;;;;;;42.33;12.73;;;;;;;;;;5021301;28;20648;-57
2021/12/29 03:21:13;;;;;;;32.20;12.43;;;;;;;;;;5015461;28;20622;-56
2021/12/29 03:23:39;;;;;;;52.10;12.95;;;;;;;;;;5021040;28;20245;-56
2021/12/29 03:26:06;;;;;;;35.05;11.23;;;;;;;;;;5023540;28;20179;-57
2021/12/29 03:28:32;;;;;;;28.25;10.65;;;;;;;;;;5017372;28;20569;-57
2021/12/29 03:30:57;;;;;;;45.55;12.25;;;;;;;;;;5018173;28;20192;-56
2021/12/29 03:33:24;;;;;;;77.10;14.82;;;;;;;;;;5020234;28;20252;-56
2021/12/29 03:35:51;;;;;;;56.53;14.30;;;;;;;;;;5023785;28;20183;-56
2021/12/29 03:38:18;;;;;;;38.78;13.85;;;;;;;;;;5015500;28;20187;-57
2021/12/29 03:40:44;;;;;;;40.60;13.10;;;;;;;;;;5015971;28;20182;-57
2021/12/29 03:43:10;;;;;;;62.90;13.30;;;;;;;;;;5014644;28;20182;-57
2021/12/29 03:45:37;;;;;;;31.45;12.93;;;;;;;;;;5009631;28;20667;-57
2021/12/29 03:48:03;;;;;;;39.03;12.55;;;;;;;;;;5021969;28;20778;-57
2021/12/29 03:50:29;;;;;;;38.10;12.73;;;;;;;;;;5016291;28;20672;-57
2021/12/29 03:52:54;;;;;;;32.50;14.02;;;;;;;;;;5018117;28;20298;-57
2021/12/29 03:55:19;;;;;;;25.73;11.77;;;;;;;;;;5014387;28;20241;-57
2021/12/29 03:57:44;;;;;;;27.35;12.63;;;;;;;;;;5020947;28;20191;-57
2021/12/29 04:00:11;;;;;;;33.92;10.70;;;;;;;;;;5016574;28;20672;-57
2021/12/29 04:02:37;;;;;;;16.20;10.27;;;;;;;;;;5025370;28;20186;-57
2021/12/29 04:05:02;;;;;;;24.17;11.10;;;;;;;;;;5014019;28;20207;-57
2021/12/29 04:07:28;;;;;;;14.32;9.18;;;;;;;;;;5021585;28;20572;-56
2021/12/29 04:09:53;;;;;;;13.00;7.85;;;;;;;;;;5015632;28;20194;-57
2021/12/29 04:12:18;;;;;;;13.35;7.13;;;;;;;;;;5016838;28;20182;-56
2021/12/29 04:14:44;;;;;;;10.55;7.28;;;;;;;;;;5019022;28;20476;-57
2021/12/29 04:17:12;;;;;;;10.15;7.28;;;;;;;;;;5020774;28;20233;-58
2021/12/29 04:20:54;;;;;;;8.27;5.95;;;;;;;;;;5008801;28;20195;-56
2021/12/29 04:22:26;;;;;;;8.70;5.88;;;;;;;;;;5021861;28;20190;-56
2021/12/29 04:24:51;;;;;;;9.10;6.93;;;;;;;;;;5017742;28;20279;-56
2021/12/29 04:27:16;;;;;;;8.45;6.53;;;;;;;;;;5011960;28;20183;-57
2021/12/29 04:29:42;;;;;;;7.30;5.93;;;;;;;;;;5015541;28;20637;-56
2021/12/29 04:32:07;;;;;;;8.95;5.50;;;;;;;;;;5015852;28;20230;-57
2021/12/29 04:34:32;;;;;;;6.57;5.40;;;;;;;;;;5016879;28;20431;-57
2021/12/29 04:36:58;;;;;;;6.30;5.10;;;;;;;;;;5015574;28;20306;-56
2021/12/29 04:39:23;;;;;;;8.45;6.60;;;;;;;;;;5021782;28;20248;-57
2021/12/29 04:41:48;;;;;;;10.23;6.05;;;;;;;;;;5021238;28;20237;-57
2021/12/29 04:44:14;;;;;;;8.98;6.47;;;;;;;;;;5023105;28;20233;-57
2021/12/29 04:46:44;;;;;;;8.13;6.80;;;;;;;;;;5018867;28;20425;-57
2021/12/29 04:49:12;;;;;;;7.03;5.97;;;;;;;;;;5005473;28;20205;-57
2021/12/29 04:51:44;;;;;;;7.80;6.03;;;;;;;;;;5014577;28;20174;-57
2021/12/29 04:54:09;;;;;;;9.73;5.93;;;;;;;;;;5015973;28;20257;-57
2021/12/29 04:56:35;;;;;;;6.90;5.13;;;;;;;;;;5017873;28;20714;-57
2021/12/29 04:59:00;;;;;;;6.82;5.72;;;;;;;;;;5017859;28;20260;-57
2021/12/29 05:01:25;;;;;;;7.40;5.20;;;;;;;;;;5023158;28;20278;-58
2021/12/29 05:03:50;;;;;;;6.00;5.10;;;;;;;;;;5022515;28;20281;-58
2021/12/29 05:09:00;;;;;;;8.25;5.60;;;;;;;;;;5017052;28;20216;-58
2021/12/29 05:11:25;;;;;;;11.23;7.50;;;;;;;;;;5011467;28;20217;-58
2021/12/29 05:13:50;;;;;;;23.67;13.57;;;;;;;;;;5017635;28;20580;-58
2021/12/29 05:16:16;;;;;;;18.88;11.50;;;;;;;;;;5016160;28;20284;-58
2021/12/29 05:18:44;;;;;;;18.90;11.80;;;;;;;;;;5019315;28;20186;-57
2021/12/29 05:21:09;;;;;;;28.63;10.35;;;;;;;;;;5013517;28;20202;-57
2021/12/29 05:23:35;;;;;;;17.45;9.85;;;;;;;;;;5012886;28;20663;-57
2021/12/29 05:26:00;;;;;;;14.43;7.85;;;;;;;;;;5022729;28;20205;-58
2021/12/29 05:28:25;;;;;;;15.13;7.30;;;;;;;;;;5007774;28;20574;-57
2021/12/29 05:30:52;;;;;;;11.55;5.75;;;;;;;;;;5019006;28;20563;-58
2021/12/29 05:33:17;;;;;;;9.15;5.85;;;;;;;;;;5009475;28;20674;-57
2021/12/29 05:35:43;;;;;;;9.07;6.40;;;;;;;;;;5014890;28;20190;-57
2021/12/29 05:38:09;;;;;;;14.98;5.82;;;;;;;;;;5016808;28;20189;-57
2021/12/29 05:40:34;;;;;;;11.82;5.40;;;;;;;;;;5020146;28;20273;-57
2021/12/29 05:42:59;;;;;;;14.85;5.78;;;;;;;;;;5010843;28;20189;-57
2021/12/29 05:45:25;;;;;;;11.43;5.47;;;;;;;;;;5018059;28;20182;-58
2021/12/29 05:47:51;;;;;;;12.93;5.65;;;;;;;;;;5030016;28;20243;-57
2021/12/29 05:50:18;;;;;;;10.10;6.03;;;;;;;;;;5021377;28;20187;-58
2021/12/29 05:52:43;;;;;;;10.82;7.03;;;;;;;;;;5020984;28;20820;-57
2021/12/29 05:55:09;;;;;;;8.60;6.05;;;;;;;;;;5009683;28;20272;-58
2021/12/29 05:57:34;;;;;;;10.25;6.40;;;;;;;;;;4999806;28;20194;-57
2021/12/29 06:00:01;;;;;;;13.77;7.18;;;;;;;;;;5001703;28;20186;-58
2021/12/29 06:02:26;;;;;;;8.60;5.43;;;;;;;;;;5020590;28;20183;-58
2021/12/29 06:04:52;;;;;;;10.68;6.40;;;;;;;;;;5018934;28;20284;-57
2021/12/29 06:07:17;;;;;;;7.97;5.32;;;;;;;;;;5018249;28;20187;-57
2021/12/29 06:09:42;;;;;;;10.43;7.18;;;;;;;;;;5010301;28;20186;-58
2021/12/29 06:12:08;;;;;;;16.67;8.75;;;;;;;;;;5019216;28;20364;-57
2021/12/29 06:14:33;;;;;;;18.30;8.70;;;;;;;;;;5016012;28;20741;-57
2021/12/29 06:16:59;;;;;;;14.60;6.60;;;;;;;;;;5004373;28;20186;-57
2021/12/29 06:19:24;;;;;;;16.52;8.10;;;;;;;;;;4999953;28;20181;-57
2021/12/29 06:21:49;;;;;;;20.55;9.35;;;;;;;;;;5006241;28;20214;-57
2021/12/29 06:24:15;;;;;;;16.00;7.53;;;;;;;;;;5023283;28;20684;-57
2021/12/29 06:26:40;;;;;;;17.50;7.78;;;;;;;;;;5014158;28;20266;-57
2021/12/29 06:29:05;;;;;;;20.02;8.75;;;;;;;;;;5020088;28;20185;-57
2021/12/29 06:31:32;;;;;;;16.92;7.80;;;;;;;;;;5021858;28;20191;-57
2021/12/29 06:33:58;;;;;;;32.72;12.05;;;;;;;;;;5023431;28;20194;-57
2021/12/29 06:36:23;;;;;;;28.10;12.32;;;;;;;;;;5019585;28;20191;-57
2021/12/29 06:38:49;;;;;;;36.50;13.23;;;;;;;;;;4997931;28;20202;-58
2021/12/29 06:41:14;;;;;;;37.00;21.77;;;;;;;;;;5000062;28;20191;-57
2021/12/29 06:43:39;;;;;;;30.63;16.75;;;;;;;;;;5013465;28;20202;-57
2021/12/29 06:46:04;;;;;;;16.50;7.82;;;;;;;;;;5018370;28;20618;-57
2021/12/29 06:48:30;;;;;;;16.63;8.43;;;;;;;;;;5026309;28;20206;-57
2021/12/29 06:50:55;;;;;;;15.45;7.60;;;;;;;;;;5025424;28;20187;-57
2021/12/29 06:53:20;;;;;;;28.10;7.15;;;;;;;;;;5022861;28;20214;-57
2021/12/29 06:55:45;;;;;;;17.20;7.80;;;;;;;;;;5022208;28;20659;-57
2021/12/29 06:58:11;;;;;;;21.38;8.75;;;;;;;;;;5019237;28;20190;-57
2021/12/29 07:00:37;;;;;;;35.05;12.02;;;;;;;;;;5017648;28;20197;-57
2021/12/29 07:03:02;;;;;;;25.75;11.80;;;;;;;;;;5020008;28;20346;-57
2021/12/29 07:05:28;;;;;;;35.83;9.48;;;;;;;;;;5024056;28;20192;-57
2021/12/29 07:07:54;;;;;;;17.25;9.55;;;;;;;;;;5017561;28;20721;-58
2021/12/29 07:10:20;;;;;;;32.88;9.48;;;;;;;;;;5017628;28;20664;-57
2021/12/29 07:12:45;;;;;;;29.45;11.77;;;;;;;;;;5011323;28;20218;-57
2021/12/29 07:15:10;;;;;;;26.15;10.70;;;;;;;;;;5015296;28;20266;-57
2021/12/29 07:17:36;;;;;;;43.60;10.98;;;;;;;;;;5013007;28;20183;-57
2021/12/29 07:20:01;;;;;;;37.33;10.75;;;;;;;;;;5019103;28;20677;-58
2021/12/29 07:22:26;;;;;;;62.95;13.13;;;;;;;;;;5017618;28;20190;-58
2021/12/29 07:24:52;;;;;;;43.38;12.55;;;;;;;;;;5021556;28;20667;-58
2021/12/29 07:27:17;;;;;;;26.20;13.63;;;;;;;;;;5023025;28;20175;-58
2021/12/29 07:29:42;;;;;;;34.90;14.02;;;;;;;;;;5020420;28;20200;-58
2021/12/29 07:32:08;;;;;;;46.70;14.07;;;;;;;;;;5021609;28;20732;-58
2021/12/29 07:34:33;;;;;;;64.97;14.40;;;;;;;;;;5017265;28;20678;-58
2021/12/29 07:36:59;;;;;;;49.85;14.63;;;;;;;;;;5022013;28;20183;-58
2021/12/29 07:39:24;;;;;;;40.47;14.77;;;;;;;;;;5018154;28;20655;-58
2021/12/29 07:41:49;;;;;;;45.53;16.77;;;;;;;;;;4999175;28;20249;-58
2021/12/29 07:44:17;;;;;;;47.80;16.95;;;;;;;;;;4998054;28;20520;-57
2021/12/29 07:46:44;;;;;;;45.05;19.02;;;;;;;;;;5023535;28;20253;-57
2021/12/29 07:49:09;;;;;;;44.08;14.48;;;;;;;;;;5015788;28;20186;-57
2021/12/29 07:51:35;;;;;;;43.83;13.70;;;;;;;;;;5009570;28;20183;-57
2021/12/29 07:54:00;;;;;;;38.33;14.13;;;;;;;;;;5014179;28;20261;-57
2021/12/29 07:56:26;;;;;;;32.78;13.23;;;;;;;;;;5015693;28;20265;-58
2021/12/29 07:58:51;;;;;;;69.30;18.25;;;;;;;;;;5016415;28;20178;-58
2021/12/29 08:01:16;;;;;;;35.30;16.38;;;;;;;;;;5004082;28;20222;-58
2021/12/29 08:03:42;;;;;;;47.28;20.05;;;;;;;;;;4996850;28;20619;-58
2021/12/29 08:06:08;;;;;;;28.10;15.13;;;;;;;;;;5017847;28;20178;-58
2021/12/29 08:08:33;;;;;;;42.08;13.48;;;;;;;;;;5017552;28;20636;-56
2021/12/29 08:10:58;;;;;;;34.10;12.48;;;;;;;;;;5013227;28;20998;-57
2021/12/29 08:13:23;;;;;;;28.80;13.82;;;;;;;;;;5012446;28;20556;-56
2021/12/29 08:15:49;;;;;;;43.50;14.00;;;;;;;;;;5021389;28;20575;-57
2021/12/29 08:18:14;;;;;;;37.72;14.98;;;;;;;;;;5016766;28;20197;-57
2021/12/29 08:20:39;;;;;;;36.35;18.50;;;;;;;;;;5015448;28;20183;-56
2021/12/29 08:23:05;;;;;;;69.03;20.58;;;;;;;;;;4999691;28;20194;-57
2021/12/29 08:25:31;;;;;;;78.63;32.05;;;;;;;;;;4997189;28;20258;-57
2021/12/29 08:27:57;;;;;;;60.92;22.98;;;;;;;;;;5019209;28;20174;-57
2021/12/29 08:30:22;;;;;;;136.25;35.63;;;;;;;;;;5014223;28;20586;-57
2021/12/29 08:32:47;;;;;;;61.80;19.17;;;;;;;;;;5013100;28;20261;-57
2021/12/29 08:35:13;;;;;;;49.28;18.23;;;;;;;;;;5018653;28;20269;-57
2021/12/29 08:37:38;;;;;;;50.92;18.48;;;;;;;;;;5017153;28;20175;-57
2021/12/29 08:40:04;;;;;;;54.40;12.63;;;;;;;;;;5014090;28;20197;-57
2021/12/29 08:42:30;;;;;;;34.90;12.75;;;;;;;;;;5015946;28;20256;-57
2021/12/29 08:44:55;;;;;;;41.95;12.38;;;;;;;;;;4996697;28;20206;-57
2021/12/29 08:47:21;;;;;;;24.42;11.70;;;;;;;;;;4997367;28;20171;-57
2021/12/29 08:49:46;;;;;;;34.70;11.63;;;;;;;;;;5001535;28;20271;-57
2021/12/29 08:52:11;;;;;;;22.60;11.32;;;;;;;;;;5013153;28;20178;-58
2021/12/29 08:54:36;;;;;;;33.08;11.80;;;;;;;;;;5018801;28;20202;-58
2021/12/29 08:57:02;;;;;;;33.35;13.88;;;;;;;;;;5019396;28;20211;-57
2021/12/29 08:59:27;;;;;;;25.45;11.23;;;;;;;;;;5013110;28;20171;-56
2021/12/29 09:01:53;;;;;;;26.77;9.65;;;;;;;;;;5008114;28;20186;-57
2021/12/29 09:04:18;;;;;;;23.92;9.93;;;;;;;;;;5016413;28;20589;-57
2021/12/29 09:06:44;;;;;;;30.27;11.32;;;;;;;;;;5015682;28;20170;-57
2021/12/29 09:09:09;;;;;;;27.75;13.88;;;;;;;;;;5017321;28;20185;-57
2021/12/29 09:11:34;;;;;;;21.40;13.95;;;;;;;;;;5017026;28;20179;-57
2021/12/29 09:14:00;;;;;;;53.53;34.35;;;;;;;;;;5013099;28;20199;-58
2021/12/29 09:16:26;;;;;;;50.13;36.50;;;;;;;;;;5014340;28;20240;-58
2021/12/29 09:18:51;;;;;;;42.08;22.92;;;;;;;;;;5014618;28;20182;-56
2021/12/29 09:21:18;;;;;;;42.08;20.95;;;;;;;;;;5017658;28;20233;-56
2021/12/29 09:23:43;;;;;;;28.02;14.32;;;;;;;;;;5014830;28;20639;-57
2021/12/29 09:26:10;;;;;;;32.70;16.75;;;;;;;;;;5018368;28;20178;-57
2021/12/29 09:28:36;;;;;;;36.33;20.63;;;;;;;;;;5016053;28;20198;-58
2021/12/29 09:31:01;;;;;;;33.25;19.08;;;;;;;;;;5018471;28;20718;-57
2021/12/29 09:33:27;;;;;;;44.92;25.77;;;;;;;;;;5018651;28;20179;-57
2021/12/29 09:35:57;;;;;;;37.38;21.70;;;;;;;;;;5025098;28;20178;-57
2021/12/29 09:38:22;;;;;;;35.50;19.98;;;;;;;;;;5016118;28;20715;-57
2021/12/29 09:40:48;;;;;;;30.98;17.30;;;;;;;;;;5018950;28;20175;-58
2021/12/29 09:43:14;;;;;;;27.13;16.98;;;;;;;;;;5018769;28;20178;-58
2021/12/29 09:45:40;;;;;;;31.42;18.42;;;;;;;;;;5022641;28;20171;-58
2021/12/29 09:48:06;;;;;;;31.23;16.67;;;;;;;;;;5014770;28;20194;-58
2021/12/29 09:50:33;;;;;;;30.83;19.15;;;;;;;;;;5016314;28;20599;-58
2021/12/29 09:52:59;;;;;;;30.35;18.10;;;;;;;;;;5021999;28;20293;-58
2021/12/29 09:55:26;;;;;;;34.00;17.27;;;;;;;;;;5015903;28;20648;-58
2021/12/29 09:57:52;;;;;;;32.13;15.73;;;;;;;;;;5009531;28;20187;-58
2021/12/29 10:00:23;;;;;;;38.17;20.30;;;;;;;;;;5025608;28;20189;-58
2021/12/29 10:02:48;;;;;;;40.05;19.98;;;;;;;;;;5015187;28;20188;-58
2021/12/29 10:05:14;;;;;;;42.60;22.67;;;;;;;;;;5016441;28;20265;-58
2021/12/29 10:07:40;;;;;;;39.95;22.05;;;;;;;;;;5013858;28;20579;-58
2021/12/29 10:10:15;;;;;;;39.78;22.77;;;;;;;;;;4995232;28;20229;-58
2021/12/29 10:12:41;;;;;;;43.05;21.35;;;;;;;;;;5016475;28;20201;-59
2021/12/29 10:15:07;;;;;;;40.80;24.58;;;;;;;;;;5013430;28;20210;-57
2021/12/29 10:17:32;;;;;;;46.60;24.50;;;;;;;;;;5015063;28;20768;-58
2021/12/29 10:20:02;;;;;;;46.13;25.27;;;;;;;;;;5011856;28;20185;-58
2021/12/29 10:22:27;;;;;;;48.97;28.13;;;;;;;;;;5016560;28;20578;-58
2021/12/29 10:25:06;;;;;;;41.13;22.42;;;;;;;;;;5016118;28;20281;-58
2021/12/29 10:27:32;;;;;;;44.85;28.80;;;;;;;;;;5020979;28;20174;-58
2021/12/29 10:29:57;;;;;;;58.28;31.85;;;;;;;;;;5015469;28;20201;-58
2021/12/29 10:32:24;;;;;;;56.15;31.83;;;;;;;;;;5018962;28;20315;-57
2021/12/29 10:34:51;;;;;;;55.30;29.05;;;;;;;;;;5024717;28;20186;-57
2021/12/29 10:37:17;;;;;;;46.25;26.23;;;;;;;;;;5016609;28;20176;-57
2021/12/29 10:39:48;;;;;;;51.65;29.00;;;;;;;;;;5026409;28;20186;-57
2021/12/29 10:42:21;;;;;;;55.10;29.42;;;;;;;;;;5022557;28;20209;-57
2021/12/29 10:44:47;;;;;;;55.90;29.92;;;;;;;;;;5018936;28;20794;-58
2021/12/29 10:47:24;;;;;;;60.65;30.67;;;;;;;;;;5014404;28;20202;-57
2021/12/29 10:49:52;;;;;;;63.92;32.03;;;;;;;;;;5016640;28;20174;-58
2021/12/29 10:52:27;;;;;;;59.90;30.33;;;;;;;;;;5018299;28;20224;-57
2021/12/29 10:54:53;;;;;;;57.08;29.73;;;;;;;;;;5020772;28;20205;-57
2021/12/29 10:57:18;;;;;;;56.95;30.30;;;;;;;;;;5017507;28;20210;-57
2021/12/29 10:59:43;;;;;;;63.30;32.75;;;;;;;;;;5012673;28;20734;-58
2021/12/29 11:02:09;;;;;;;52.72;28.10;;;;;;;;;;4993445;28;20183;-57
2021/12/29 11:04:35;;;;;;;51.60;26.58;;;;;;;;;;5024680;28;20563;-58
2021/12/29 11:07:01;;;;;;;48.88;26.48;;;;;;;;;;5017732;28;20183;-58
2021/12/29 11:09:29;;;;;;;76.97;42.33;;;;;;;;;;5016603;28;20188;-58
2021/12/29 11:11:55;;;;;;;62.17;33.20;;;;;;;;;;5001181;28;20638;-57
2021/12/29 11:14:28;;;;;;;72.55;37.13;;;;;;;;;;5018104;28;20568;-58
2021/12/29 11:16:59;;;;;;;71.47;38.40;;;;;;;;;;5021937;28;20717;-58
2021/12/29 11:19:24;;;;;;;64.63;35.60;;;;;;;;;;5023092;28;20197;-58
2021/12/29 11:21:50;;;;;;;62.28;34.47;;;;;;;;;;5017246;28;20186;-56
2021/12/29 11:24:16;;;;;;;59.97;33.55;;;;;;;;;;5015500;28;20219;-57
2021/12/29 11:26:41;;;;;;;71.18;36.60;;;;;;;;;;5014683;28;20183;-57
2021/12/29 11:29:08;;;;;;;65.95;33.75;;;;;;;;;;5010688;28;20262;-57
2021/12/29 11:31:39;;;;;;;65.53;34.08;;;;;;;;;;5011464;28;20656;-58
2021/12/29 11:34:11;;;;;;;59.78;32.60;;;;;;;;;;5017040;28;20185;-57
2021/12/29 11:36:36;;;;;;;70.72;35.20;;;;;;;;;;5019227;28;20178;-57
2021/12/29 11:39:01;;;;;;;76.03;38.80;;;;;;;;;;5019657;28;20262;-57
2021/12/29 11:41:27;;;;;;;74.88;37.40;;;;;;;;;;5019477;28;20658;-56
2021/12/29 11:43:52;;;;;;;69.60;37.15;;;;;;;;;;5014705;28;20216;-56
2021/12/29 11:46:23;;;;;;;68.57;37.08;;;;;;;;;;5021971;28;20239;-57
2021/12/29 11:48:49;;;;;;;79.40;39.58;;;;;;;;;;5017956;28;20171;-56
2021/12/29 11:51:16;;;;;;;80.63;40.47;;;;;;;;;;5020921;28;20189;-57
2021/12/29 11:53:57;;;;;;;79.85;38.60;;;;;;;;;;5014396;28;20218;-57
2021/12/29 11:56:23;;;;;;;75.82;36.00;;;;;;;;;;5017463;28;20766;-57
2021/12/29 11:58:49;;;;;;;74.18;35.90;;;;;;;;;;5019803;28;20237;-57
2021/12/29 12:01:17;;;;;;;74.47;35.97;;;;;;;;;;5024846;28;20313;-58
2021/12/29 12:03:51;;;;;;;68.53;38.03;;;;;;;;;;5010019;28;20206;-57
2021/12/29 12:06:22;;;;;;;62.72;33.75;;;;;;;;;;5021451;28;20182;-57
2021/12/29 12:08:47;;;;;;;62.65;33.00;;;;;;;;;;5020550;28;20178;-57
2021/12/29 12:11:26;;;;;;;60.70;30.75;;;;;;;;;;5021218;28;20595;-57
2021/12/29 12:13:51;;;;;;;64.55;32.67;;;;;;;;;;5006145;28;20194;-57
2021/12/29 12:16:16;;;;;;;121.50;58.53;;;;;;;;;;4997259;28;20230;-57
2021/12/29 12:18:52;;;;;;;110.20;48.90;;;;;;;;;;4997353;28;20407;-58
2021/12/29 12:21:29;;;;;;;95.97;47.00;;;;;;;;;;5022244;28;20186;-57
2021/12/29 12:23:55;;;;;;;204.18;102.53;;;;;;;;;;5015346;28;20257;-57
2021/12/29 12:26:25;;;;;;;112.68;66.40;;;;;;;;;;5024070;28;20217;-57
2021/12/29 12:28:51;;;;;;;91.55;50.55;;;;;;;;;;5013189;28;20187;-58
2021/12/29 12:31:35;;;;;;;94.05;47.13;;;;;;;;;;5020607;28;20219;-57
2021/12/29 12:34:08;;;;;;;81.00;44.97;;;;;;;;;;5017792;28;20179;-58
2021/12/29 12:36:33;;;;;;;109.15;54.55;;;;;;;;;;5015749;28;20186;-58
2021/12/29 12:39:13;;;;;;;100.65;51.13;;;;;;;;;;5017271;28;20273;-57
2021/12/29 12:41:40;;;;;;;84.70;46.90;;;;;;;;;;5020115;28;20178;-58
2021/12/29 12:44:05;;;;;;;87.38;47.50;;;;;;;;;;5017886;28;20207;-57
2021/12/29 12:46:31;;;;;;;70.72;42.88;;;;;;;;;;5024086;28;20676;-57
2021/12/29 12:48:57;;;;;;;73.25;41.72;;;;;;;;;;5018227;28;20174;-58
2021/12/29 12:51:23;;;;;;;95.82;52.10;;;;;;;;;;5018459;28;20174;-57
2021/12/29 12:53:48;;;;;;;93.63;51.58;;;;;;;;;;5015571;28;20199;-57
2021/12/29 12:56:18;;;;;;;95.22;54.72;;;;;;;;;;5019425;28;20189;-57
2021/12/29 12:58:45;;;;;;;89.05;47.97;;;;;;;;;;4998583;28;20197;-57
2021/12/29 13:01:12;;;;;;;98.90;54.53;;;;;;;;;;5018957;28;20186;-57
2021/12/29 13:03:38;;;;;;;103.03;55.22;;;;;;;;;;5019288;28;20278;-58
2021/12/29 13:06:04;;;;;;;108.78;61.97;;;;;;;;;;5013339;28;20265;-58
2021/12/29 13:08:31;;;;;;;108.32;61.92;;;;;;;;;;5013867;28;20593;-57
2021/12/29 13:10:58;;;;;;;107.20;56.67;;;;;;;;;;5005577;28;20263;-57
2021/12/29 13:13:25;;;;;;;99.05;56.42;;;;;;;;;;5014424;28;20231;-57
2021/12/29 13:15:52;;;;;;;103.82;58.90;;;;;;;;;;5019001;28;20202;-57
2021/12/29 13:18:18;;;;;;;102.65;55.63;;;;;;;;;;5015576;28;20179;-57
2021/12/29 13:20:44;;;;;;;90.18;50.25;;;;;;;;;;5016593;28;20178;-57
2021/12/29 13:23:19;;;;;;;93.22;52.70;;;;;;;;;;5019019;28;20186;-57
2021/12/29 13:25:45;;;;;;;86.00;48.40;;;;;;;;;;5016781;28;20225;-57
2021/12/29 13:28:14;;;;;;;99.25;53.17;;;;;;;;;;5018409;28;20252;-58
2021/12/29 13:30:44;;;;;;;102.78;53.72;;;;;;;;;;5014777;28;20231;-57
2021/12/29 13:33:10;;;;;;;89.45;50.10;;;;;;;;;;5011521;28;20171;-56
2021/12/29 13:35:37;;;;;;;105.35;53.88;;;;;;;;;;5020710;28;20265;-57
2021/12/29 13:38:03;;;;;;;93.78;51.83;;;;;;;;;;5008994;28;20917;-56
2021/12/29 13:40:30;;;;;;;96.43;51.83;;;;;;;;;;5015361;28;20748;-57
2021/12/29 13:42:55;;;;;;;100.80;54.88;;;;;;;;;;5017326;28;20685;-56
2021/12/29 13:45:22;;;;;;;93.40;54.75;;;;;;;;;;5017516;28;20556;-58
2021/12/29 13:47:47;;;;;;;87.82;49.03;;;;;;;;;;5016269;28;20302;-58
2021/12/29 13:50:13;;;;;;;71.93;42.05;;;;;;;;;;5014359;28;20203;-58
2021/12/29 13:52:38;;;;;;;61.72;39.03;;;;;;;;;;5014703;28;20171;-58
2021/12/29 13:55:04;;;;;;;65.45;41.20;;;;;;;;;;5018265;28;20178;-58
2021/12/29 13:57:29;;;;;;;79.45;45.50;;;;;;;;;;5007770;28;20186;-57
2021/12/29 13:59:56;;;;;;;72.72;41.03;;;;;;;;;;4999028;28;20749;-58
2021/12/29 14:02:21;;;;;;;79.03;45.13;;;;;;;;;;4996304;28;20473;-58
2021/12/29 14:04:47;;;;;;;86.78;50.05;;;;;;;;;;4999784;28;20214;-58
2021/12/29 14:07:16;;;;;;;217.50;80.72;;;;;;;;;;5019854;28;20706;-57
2021/12/29 14:09:41;;;;;;;171.27;67.85;;;;;;;;;;5017117;28;20576;-57
2021/12/29 14:12:07;;;;;;;53.35;31.63;;;;;;;;;;5011480;28;20189;-58
2021/12/29 14:14:32;;;;;;;42.80;25.25;;;;;;;;;;5015508;28;20606;-58
2021/12/29 14:16:57;;;;;;;34.97;22.70;;;;;;;;;;5017349;28;20208;-58
2021/12/29 14:19:24;;;;;;;26.27;18.63;;;;;;;;;;5011564;28;20268;-58
2021/12/29 14:21:50;;;;;;;32.92;20.38;;;;;;;;;;5018158;28;20492;-58